Time;durP1;ratioP1;P1;durP2;ratioP2;P2;SDS_P1;SDS_P2;PMS_P1;PMS_P2;Temp;Humidity;BMP_temperature;BMP_pressure;BME280_temperature;BME280_humidity;BME280_pressure;Samples;Min_cycle;Max_cycle;Signal;HPM_P1;HPM_P2
2022/06/19 00:00:28;;;;;;;;;;;;;;;29.02;73.62;97718.53;5031268;28;20404;-84
2022/06/19 00:02:55;;;;;;;;;;;;;;;28.14;79.28;97710.63;5023727;28;20019;-81
2022/06/19 00:05:21;;;;;;;;;;;;;;;29.66;80.89;97716.72;5027949;28;20016;-81
2022/06/19 00:07:48;;;;;;;;;;;;;;;29.72;79.71;97715.94;5024750;28;20002;-79
2022/06/19 00:10:14;;;;;;;;;;;;;;;30.44;75.49;97714.69;5028271;28;19933;-82
2022/06/19 00:12:42;;;;;;;;;;;;;;;30.75;71.21;97715.78;5029063;28;19979;-79
2022/06/19 00:15:09;;;;;;;;;;;;;;;30.90;69.37;97701.53;5025708;28;19925;-82
2022/06/19 00:17:36;;;;;;;;;;;;;;;31.01;68.56;97696.75;5009654;28;20023;-82
2022/06/19 00:20:03;;;;;;;;;;;;;;;31.11;67.58;97683.31;5032467;28;20015;-83
2022/06/19 00:22:30;;;;;;;;;;;;;;;30.29;64.57;97685.59;5013673;28;19925;-79
2022/06/19 00:24:56;;;;;;;;;;;;;;;29.18;70.06;97684.03;5013360;28;20045;-78
2022/06/19 00:27:23;;;;;;;;;;;;;;;28.53;75.05;97678.69;5033723;28;20189;-82
2022/06/19 00:29:51;;;;;;;;;;;;;;;27.98;77.12;97674.44;5035330;28;20011;-82
2022/06/19 00:32:18;;;;;;;;;;;;;;;27.72;81.12;97669.94;5030107;28;20024;-81
2022/06/19 00:34:44;;;;;;;;;;;;;;;27.73;80.11;97671.53;5031448;28;19937;-79
2022/06/19 00:37:10;;;;;;;;;;;;;;;27.64;79.93;97660.88;5038885;28;19925;-83
2022/06/19 00:39:39;;;;;;;;;;;;;;;27.10;84.47;97663.50;5020009;28;19924;-81
2022/06/19 00:42:06;;;;;;;;;;;;;;;26.63;87.76;97659.47;5035485;28;19928;-83
2022/06/19 00:44:32;;;;;;;;;;;;;;;26.64;87.15;97661.03;5036083;28;19924;-81
2022/06/19 00:47:06;;;;;;;;;;;;;;;26.33;88.99;97655.16;5036830;28;20422;-83
2022/06/19 00:49:34;;;;;;;;;;;;;;;26.21;90.40;97656.97;5035890;28;19925;-84
2022/06/19 00:52:03;;;;;;;;;;;;;;;26.60;87.39;97646.50;5035465;28;19983;-82
2022/06/19 00:54:33;;;;;;;;;;;;;;;26.93;85.06;97647.66;5038394;28;20435;-82
2022/06/19 00:56:59;;;;;;;;;;;;;;;26.75;84.93;97648.25;5018537;28;19925;-84
2022/06/19 00:59:26;;;;;;;;;;;;;;;26.85;84.74;97646.03;5035745;28;20012;-82
2022/06/19 01:01:52;;;;;;;;;;;;;;;26.97;83.58;97648.50;5030936;28;20497;-80
2022/06/19 01:04:23;;;;;;;;;;;;;;;26.83;84.61;97640.13;5036312;28;19929;-81
2022/06/19 01:06:50;;;;;;;;;;;;;;;26.79;84.20;97640.84;5035969;28;20395;-85
2022/06/19 01:09:16;;;;;;;;;;;;;;;26.31;86.26;97633.63;5033918;28;19968;-83
2022/06/19 01:11:43;;;;;;;;;;;;;;;26.02;88.49;97631.66;5031637;28;19971;-80
2022/06/19 01:14:11;;;;;;;;;;;;;;;25.54;90.59;97634.09;5034672;28;20636;-86
2022/06/19 01:16:38;;;;;;;;;;;;;;;24.96;94.48;97633.47;5017472;28;20766;-83
2022/06/19 01:19:05;;;;;;;;;;;;;;;24.55;98.89;97632.28;5036748;28;20008;-86
2022/06/19 01:21:43;;;;;;;;;;;;;;;24.53;100.00;97625.63;5015630;28;20023;-85
2022/06/19 01:24:15;;;;;;;;;;;;;;;24.21;100.00;97622.25;5015649;28;19935;-85
2022/06/19 01:26:44;;;;;;;;;;;;;;;23.67;100.00;97626.88;5015567;28;19929;-85
2022/06/19 01:29:10;;;;;;;;;;;;;;;23.64;100.00;97623.69;5033629;28;19924;-84
2022/06/19 01:31:38;;;;;;;;;;;;;;;23.37;100.00;97615.63;5037090;28;20399;-83
2022/06/19 01:34:26;;;;;;;;;;;;;;;23.03;100.00;97617.13;5037289;28;20395;-83
2022/06/19 01:36:54;;;;;;;;;;;;;;;22.86;100.00;97606.56;5040095;28;19932;-84
2022/06/19 01:39:21;;;;;;;;;;;;;;;23.33;100.00;97614.75;5033339;28;19968;-84
2022/06/19 01:41:49;;;;;;;;;;;;;;;23.34;100.00;97606.22;5042317;28;19925;-87
2022/06/19 01:44:15;;;;;;;;;;;;;;;23.57;100.00;97595.50;5037098;28;19932;-84
2022/06/19 01:46:42;;;;;;;;;;;;;;;23.55;100.00;97587.66;5019264;28;19925;-81
2022/06/19 01:49:08;;;;;;;;;;;;;;;23.81;100.00;97589.81;5021880;28;19925;-86
2022/06/19 01:51:35;;;;;;;;;;;;;;;23.80;100.00;97579.25;5034326;28;20002;-84
2022/06/19 01:54:04;;;;;;;;;;;;;;;23.54;100.00;97569.75;5016211;28;19929;-83
2022/06/19 01:56:30;;;;;;;;;;;;;;;23.36;100.00;97567.72;5007817;28;20016;-82
2022/06/19 01:59:02;;;;;;;;;;;;;;;23.25;100.00;97570.19;5016201;28;19928;-84
2022/06/19 02:01:29;;;;;;;;;;;;;;;23.19;100.00;97563.44;5034248;28;20379;-85
2022/06/19 02:03:58;;;;;;;;;;;;;;;23.24;100.00;97567.84;5030851;28;19990;-82
2022/06/19 02:06:27;;;;;;;;;;;;;;;23.16;100.00;97564.13;5018529;28;20021;-86
2022/06/19 02:08:54;;;;;;;;;;;;;;;23.22;100.00;97553.75;5036101;28;20083;-85
2022/06/19 02:11:21;;;;;;;;;;;;;;;23.48;100.00;97552.09;5037395;28;19924;-85
2022/06/19 02:13:49;;;;;;;;;;;;;;;23.52;100.00;97536.56;5029643;28;20073;-84
2022/06/19 02:16:19;;;;;;;;;;;;;;;23.42;100.00;97536.34;5026915;28;20283;-84
2022/06/19 02:18:46;;;;;;;;;;;;;;;23.37;100.00;97526.47;5020323;28;19979;-86
2022/06/19 02:21:15;;;;;;;;;;;;;;;23.17;100.00;97530.31;5016574;28;19990;-88
2022/06/19 02:23:41;;;;;;;;;;;;;;;23.28;100.00;97517.72;5014706;28;20422;-85
2022/06/19 02:26:10;;;;;;;;;;;;;;;23.30;100.00;97520.88;5022971;28;20396;-82
2022/06/19 02:28:37;;;;;;;;;;;;;;;23.54;100.00;97520.69;5010386;28;19975;-84
2022/06/19 02:31:06;;;;;;;;;;;;;;;24.95;99.33;97519.09;5035893;28;20289;-82
2022/06/19 02:33:35;;;;;;;;;;;;;;;25.04;97.53;97511.44;5017228;28;19936;-82
2022/06/19 02:36:02;;;;;;;;;;;;;;;25.70;92.59;97505.38;5037507;28;19925;-83
2022/06/19 02:38:28;;;;;;;;;;;;;;;26.03;89.89;97508.13;5002582;28;19932;-83
2022/06/19 02:40:58;;;;;;;;;;;;;;;26.19;88.44;97502.47;5036840;28;20220;-83
2022/06/19 02:43:26;;;;;;;;;;;;;;;25.96;88.58;97504.53;5032918;28;20748;-82
2022/06/19 02:45:53;;;;;;;;;;;;;;;25.95;89.45;97505.69;5024799;28;19936;-82
2022/06/19 02:48:21;;;;;;;;;;;;;;;25.95;89.35;97505.69;5031664;28;20056;-82
2022/06/19 02:50:49;;;;;;;;;;;;;;;25.68;89.62;97502.25;5035835;28;19928;-82
2022/06/19 02:53:16;;;;;;;;;;;;;;;25.70;90.44;97511.66;5034721;28;20003;-82
2022/06/19 02:55:42;;;;;;;;;;;;;;;25.47;91.33;97505.44;5026173;28;19929;-84
2022/06/19 02:58:09;;;;;;;;;;;;;;;24.90;94.41;97500.28;5027442;28;19925;-83
2022/06/19 03:00:35;;;;;;;;;;;;;;;24.47;98.26;97502.28;5022729;28;19929;-82
2022/06/19 03:03:05;;;;;;;;;;;;;;;24.32;99.48;97495.00;5033983;28;19925;-83
2022/06/19 03:05:31;;;;;;;;;;;;;;;24.37;100.00;97494.69;5013350;28;20002;-85
2022/06/19 03:07:59;;;;;;;;;;;;;;;24.42;100.00;97491.66;5035715;28;19929;-83
2022/06/19 03:10:26;;;;;;;;;;;;;;;24.62;98.61;97485.00;5025515;28;19925;-83
2022/06/19 03:12:53;;;;;;;;;;;;;;;25.01;94.63;97484.84;5007387;28;20409;-83
2022/06/19 03:15:20;;;;;;;;;;;;;;;24.71;97.28;97482.00;5017766;28;19929;-82
2022/06/19 03:17:46;;;;;;;;;;;;;;;24.71;97.33;97488.25;5034052;28;20235;-83
2022/06/19 03:20:14;;;;;;;;;;;;;;;24.36;99.03;97484.13;5033070;28;20296;-82
2022/06/19 03:22:40;;;;;;;;;;;;;;;24.57;97.56;97488.00;5033338;28;19925;-83
2022/06/19 03:25:08;;;;;;;;;;;;;;;24.73;97.31;97485.16;5020711;28;19925;-81
2022/06/19 03:27:34;;;;;;;;;;;;;;;24.36;99.56;97478.66;5038265;28;19931;-83
2022/06/19 03:30:01;;;;;;;;;;;;;;;24.25;100.00;97483.94;5017217;28;19960;-82
2022/06/19 03:32:27;;;;;;;;;;;;;;;24.41;98.21;97484.63;5033738;28;20023;-82
2022/06/19 03:34:54;;;;;;;;;;;;;;;24.17;100.00;97482.22;5036960;28;19964;-82
2022/06/19 03:37:20;;;;;;;;;;;;;;;24.41;98.33;97484.63;5033047;28;20024;-83
2022/06/19 03:39:46;;;;;;;;;;;;;;;24.16;98.74;97488.84;5036399;28;20020;-82
2022/06/19 03:42:15;;;;;;;;;;;;;;;24.30;98.50;97480.91;5021602;28;20435;-82
2022/06/19 03:44:41;;;;;;;;;;;;;;;24.09;100.00;97481.28;5027852;28;20106;-83
2022/06/19 03:47:08;;;;;;;;;;;;;;;23.65;100.00;97480.78;5024608;28;19955;-82
2022/06/19 03:49:34;;;;;;;;;;;;;;;23.58;100.00;97485.31;5027463;28;20016;-83
2022/06/19 03:52:01;;;;;;;;;;;;;;;23.70;100.00;97484.38;5021531;28;20194;-81
2022/06/19 03:54:27;;;;;;;;;;;;;;;23.88;100.00;97489.06;5017653;28;19965;-82
2022/06/19 03:56:54;;;;;;;;;;;;;;;23.79;100.00;97493.94;5022381;28;20456;-82
2022/06/19 03:59:21;;;;;;;;;;;;;;;24.05;100.00;97493.25;5008597;28;19933;-82
2022/06/19 04:01:48;;;;;;;;;;;;;;;23.46;100.00;97483.50;5009461;28;19961;-83
2022/06/19 04:04:14;;;;;;;;;;;;;;;23.42;100.00;97487.31;5018223;28;20090;-83
2022/06/19 04:06:41;;;;;;;;;;;;;;;23.58;100.00;97486.09;5015792;28;20320;-83
2022/06/19 04:09:09;;;;;;;;;;;;;;;24.07;100.00;97496.44;5033655;28;20025;-82
2022/06/19 04:11:35;;;;;;;;;;;;;;;23.71;100.00;97492.19;5039255;28;19935;-83
2022/06/19 04:14:02;;;;;;;;;;;;;;;23.78;100.00;97499.72;5028238;28;20088;-82
2022/06/19 04:16:31;;;;;;;;;;;;;;;23.87;100.00;97498.38;5027439;28;20039;-82
2022/06/19 04:18:58;;;;;;;;;;;;;;;24.13;100.00;97501.28;5036029;28;20034;-83
2022/06/19 04:21:25;;;;;;;;;;;;;;;24.34;97.85;97505.53;5033845;28;20475;-82
2022/06/19 04:23:53;;;;;;;;;;;;;;;24.28;98.54;97501.53;5022386;28;19932;-82
2022/06/19 04:26:20;;;;;;;;;;;;;;;23.85;100.00;97508.06;5035599;28;19955;-81
2022/06/19 04:28:46;;;;;;;;;;;;;;;24.75;95.70;97510.19;5030133;28;20040;-82
2022/06/19 04:31:13;;;;;;;;;;;;;;;25.12;92.10;97507.66;5036028;28;20019;-83
2022/06/19 04:33:40;;;;;;;;;;;;;;;24.53;96.66;97517.22;5029752;28;20016;-82
2022/06/19 04:36:07;;;;;;;;;;;;;;;24.01;100.00;97508.78;5023509;28;19933;-83
2022/06/19 04:38:34;;;;;;;;;;;;;;;23.52;100.00;97503.09;5012464;28;20019;-83
2022/06/19 04:41:00;;;;;;;;;;;;;;;23.21;100.00;97492.25;5016540;28;19929;-82
2022/06/19 04:43:27;;;;;;;;;;;;;;;23.15;100.00;97494.44;5029313;28;20179;-82
2022/06/19 04:46:01;;;;;;;;;;;;;;;23.09;100.00;97493.94;5026945;28;20161;-81
2022/06/19 04:48:27;;;;;;;;;;;;;;;23.28;100.00;97487.75;5024437;28;20055;-82
2022/06/19 04:50:55;;;;;;;;;;;;;;;23.37;100.00;97490.25;5025917;28;19929;-83
2022/06/19 04:53:21;;;;;;;;;;;;;;;23.42;100.00;97485.38;5029166;28;19952;-82
2022/06/19 04:55:47;;;;;;;;;;;;;;;23.40;100.00;97481.41;5027632;28;20042;-81
2022/06/19 04:58:14;;;;;;;;;;;;;;;23.25;100.00;97480.28;5028826;28;19928;-82
2022/06/19 05:00:40;;;;;;;;;;;;;;;23.19;100.00;97489.88;5035019;28;20028;-82
2022/06/19 05:03:07;;;;;;;;;;;;;;;23.39;100.00;97480.63;5032510;28;19928;-81
2022/06/19 05:05:34;;;;;;;;;;;;;;;23.77;100.00;97481.81;5033321;28;19933;-82
2022/06/19 05:08:01;;;;;;;;;;;;;;;24.23;100.00;97477.28;5037114;28;19931;-83
2022/06/19 05:10:28;;;;;;;;;;;;;;;24.49;98.04;97480.88;5036814;28;19932;-82
2022/06/19 05:12:55;;;;;;;;;;;;;;;24.56;98.00;97481.00;5004681;28;20615;-82
2022/06/19 05:15:22;;;;;;;;;;;;;;;24.37;99.51;97483.78;5022536;28;19925;-82
2022/06/19 05:17:48;;;;;;;;;;;;;;;24.15;100.00;97488.03;5038678;28;19924;-82
2022/06/19 05:20:14;;;;;;;;;;;;;;;24.30;100.00;97491.81;5039867;28;19929;-82
2022/06/19 05:22:41;;;;;;;;;;;;;;;23.92;100.00;97483.66;5030984;28;19964;-82
2022/06/19 05:25:09;;;;;;;;;;;;;;;23.70;100.00;97484.38;5034446;28;20007;-82
2022/06/19 05:27:37;;;;;;;;;;;;;;;23.98;100.00;97476.78;5042224;28;19929;-82
2022/06/19 05:30:04;;;;;;;;;;;;;;;23.94;100.00;97481.38;5040586;28;20004;-83
2022/06/19 05:32:30;;;;;;;;;;;;;;;24.33;100.00;97477.44;5039218;28;20039;-83
2022/06/19 05:34:57;;;;;;;;;;;;;;;24.58;99.89;97483.34;5035735;28;19968;-82
2022/06/19 05:37:23;;;;;;;;;;;;;;;24.84;97.31;97469.78;5038723;28;20030;-83
2022/06/19 05:39:49;;;;;;;;;;;;;;;24.73;96.46;97475.03;5038013;28;19983;-82
2022/06/19 05:42:18;;;;;;;;;;;;;;;24.40;100.00;97483.03;5021454;28;19937;-82
2022/06/19 05:44:44;;;;;;;;;;;;;;;24.48;100.00;97482.00;5019543;28;19955;-82
2022/06/19 05:47:11;;;;;;;;;;;;;;;24.61;99.07;97482.63;5018101;28;19932;-82
2022/06/19 05:49:37;;;;;;;;;;;;;;;24.69;97.78;97481.59;5017010;28;20027;-81
2022/06/19 05:52:04;;;;;;;;;;;;;;;24.87;97.26;97476.44;5015723;28;19933;-82
2022/06/19 05:54:31;;;;;;;;;;;;;;;24.48;98.57;97479.28;5009913;28;20409;-82
2022/06/19 05:56:57;;;;;;;;;;;;;;;24.49;99.42;97477.34;5037430;28;20031;-81
2022/06/19 05:59:25;;;;;;;;;;;;;;;24.41;99.93;97468.25;5040649;28;20015;-82
2022/06/19 06:01:51;;;;;;;;;;;;;;;24.52;99.83;97466.47;5037363;28;20018;-82
2022/06/19 06:04:17;;;;;;;;;;;;;;;24.96;96.94;97463.31;5039067;28;20000;-82
2022/06/19 06:06:44;;;;;;;;;;;;;;;24.94;97.34;97468.38;5029623;28;20596;-81
2022/06/19 06:09:12;;;;;;;;;;;;;;;25.49;93.44;97462.16;5022274;28;19981;-83
2022/06/19 06:11:39;;;;;;;;;;;;;;;24.99;95.32;97462.56;5033229;28;20481;-82
2022/06/19 06:14:05;;;;;;;;;;;;;;;24.94;95.86;97451.97;5030428;28;20495;-82
2022/06/19 06:16:33;;;;;;;;;;;;;;;25.25;94.41;97443.44;5032248;28;19995;-82
2022/06/19 06:18:59;;;;;;;;;;;;;;;25.52;92.86;97436.81;5020092;28;20436;-81
2022/06/19 06:21:26;;;;;;;;;;;;;;;25.22;95.04;97436.00;5031748;28;19924;-83
2022/06/19 06:23:53;;;;;;;;;;;;;;;25.42;93.81;97423.75;5029110;28;19929;-82
2022/06/19 06:26:21;;;;;;;;;;;;;;;25.54;93.27;97426.28;5030151;28;19929;-82
2022/06/19 06:28:49;;;;;;;;;;;;;;;25.44;94.58;97424.16;5033572;28;19929;-82
2022/06/19 06:31:16;;;;;;;;;;;;;;;25.48;94.79;97424.22;5033715;28;19928;-82
2022/06/19 06:33:44;;;;;;;;;;;;;;;25.52;95.12;97431.34;5034525;28;19928;-82
2022/06/19 06:36:11;;;;;;;;;;;;;;;25.70;94.03;97423.34;5011715;28;19924;-82
2022/06/19 06:38:37;;;;;;;;;;;;;;;25.94;91.94;97416.56;5026398;28;19957;-82
2022/06/19 06:41:04;;;;;;;;;;;;;;;25.94;90.77;97416.56;5035376;28;20083;-83
2022/06/19 06:43:31;;;;;;;;;;;;;;;25.95;90.07;97407.19;5030568;28;20012;-82
2022/06/19 06:46:03;;;;;;;;;;;;;;;25.92;87.50;97416.94;5038650;28;20043;-82
2022/06/19 06:48:30;;;;;;;;;;;;;;;26.11;86.74;97416.75;5030139;28;19933;-83
2022/06/19 06:50:58;;;;;;;;;;;;;;;26.26;84.04;97406.75;5038964;28;19929;-82
2022/06/19 06:53:24;;;;;;;;;;;;;;;26.21;84.26;97413.34;5009881;28;20061;-82
2022/06/19 06:55:51;;;;;;;;;;;;;;;26.12;83.84;97406.59;5031808;28;19997;-81
2022/06/19 06:58:17;;;;;;;;;;;;;;;26.21;84.88;97413.34;5023175;28;19956;-81
2022/06/19 07:00:43;;;;;;;;;;;;;;;26.13;84.84;97422.63;5034998;28;19931;-82
2022/06/19 07:03:10;;;;;;;;;;;;;;;26.00;85.21;97415.06;5031047;28;20500;-82
2022/06/19 07:05:37;;;;;;;;;;;;;;;25.92;86.29;97413.41;5033569;28;19929;-82
2022/06/19 07:08:05;;;;;;;;;;;;;;;26.02;86.40;97418.22;5006248;28;20345;-81
2022/06/19 07:10:31;;;;;;;;;;;;;;;26.02;87.06;97423.69;5017040;28;19993;-82
2022/06/19 07:12:58;;;;;;;;;;;;;;;26.03;88.11;97420.56;5027999;28;19926;-82
2022/06/19 07:15:24;;;;;;;;;;;;;;;26.30;87.63;97418.53;5018606;28;19925;-81
2022/06/19 07:17:51;;;;;;;;;;;;;;;26.51;86.09;97421.44;5036183;28;19933;-82
2022/06/19 07:20:18;;;;;;;;;;;;;;;26.88;84.07;97415.88;5034779;28;20439;-82
2022/06/19 07:22:44;;;;;;;;;;;;;;;26.95;83.76;97407.72;5035368;28;19941;-83
2022/06/19 07:25:15;;;;;;;;;;;;;;;26.76;83.73;97413.44;5031492;28;19951;-81
2022/06/19 07:27:41;;;;;;;;;;;;;;;26.61;85.66;97425.44;5028486;28;19987;-83
2022/06/19 07:30:08;;;;;;;;;;;;;;;26.63;85.81;97432.13;5022853;28;20016;-82
2022/06/19 07:32:35;;;;;;;;;;;;;;;26.76;83.46;97416.97;5021068;28;20380;-82
2022/06/19 07:35:01;;;;;;;;;;;;;;;26.53;85.82;97421.06;5022284;28;19968;-84
2022/06/19 07:37:27;;;;;;;;;;;;;;;26.55;86.68;97414.06;5025377;28;20023;-83
2022/06/19 07:39:55;;;;;;;;;;;;;;;26.79;85.64;97409.94;5019635;28;19948;-82
2022/06/19 07:42:23;;;;;;;;;;;;;;;26.88;84.88;97399.44;5029280;28;19925;-83
2022/06/19 07:44:49;;;;;;;;;;;;;;;26.83;82.62;97402.56;5036389;28;19925;-82
2022/06/19 07:50:15;;;;;;;;;;;;;;;27.00;82.55;97388.16;5029092;28;19929;-81
2022/06/19 07:52:42;;;;;;;;;;;;;;;27.15;83.04;97392.56;5036135;28;20659;-82
2022/06/19 07:55:09;;;;;;;;;;;;;;;27.25;83.16;97385.56;5031189;28;19935;-82
2022/06/19 07:57:37;;;;;;;;;;;;;;;27.61;81.14;97392.00;5023518;28;19955;-83
2022/06/19 08:00:04;;;;;;;;;;;;;;;27.49;82.56;97379.41;5024246;28;19936;-82
2022/06/19 08:02:31;;;;;;;;;;;;;;;27.38;84.48;97383.28;5032843;28;19929;-82
2022/06/19 08:04:58;;;;;;;;;;;;;;;27.24;86.08;97375.75;5036837;28;19934;-83
2022/06/19 08:07:24;;;;;;;;;;;;;;;27.18;83.95;97380.03;5034440;28;19968;-83
2022/06/19 08:09:51;;;;;;;;;;;;;;;27.15;83.59;97375.31;5010159;28;20043;-83
2022/06/19 08:12:17;;;;;;;;;;;;;;;26.90;83.49;97379.88;5027753;28;20016;-82
2022/06/19 08:14:45;;;;;;;;;;;;;;;27.00;85.15;97377.22;5028890;28;19983;-81
2022/06/19 08:17:12;;;;;;;;;;;;;;;27.09;84.94;97376.84;5023738;28;20035;-83
2022/06/19 08:19:38;;;;;;;;;;;;;;;27.27;83.60;97377.72;5023438;28;20020;-82
2022/06/19 08:22:04;;;;;;;;;;;;;;;27.22;84.24;97383.59;5031505;28;19986;-81
2022/06/19 08:24:31;;;;;;;;;;;;;;;27.57;82.99;97364.56;5031859;28;20019;-81
2022/06/19 08:26:58;;;;;;;;;;;;;;;27.48;84.55;97369.63;5017131;28;22404;-82
2022/06/19 08:29:24;;;;;;;;;;;;;;;27.74;83.68;97371.28;5021184;28;20099;-82
2022/06/19 08:31:52;;;;;;;;;;;;;;;27.91;83.58;97367.00;5033913;28;19971;-82
2022/06/19 08:34:18;;;;;;;;;;;;;;;28.32;80.57;97371.00;5028470;28;19939;-81
2022/06/19 08:36:45;;;;;;;;;;;;;;;28.12;81.53;97375.31;5024530;28;19929;-81
2022/06/19 08:39:14;;;;;;;;;;;;;;;27.91;83.36;97373.28;5038063;28;19947;-82
2022/06/19 08:41:49;;;;;;;;;;;;;;;28.14;83.25;97372.94;5034972;28;19963;-82
2022/06/19 08:44:28;;;;;;;;;;;;;;;27.97;82.51;97384.66;5025374;28;19925;-82
2022/06/19 08:47:03;;;;;;;;;;;;;;;28.38;81.49;97386.69;5017587;28;19931;-82
2022/06/19 08:49:41;;;;;;;;;;;;;;;28.27;82.74;97390.59;5020128;28;19925;-83
2022/06/19 08:52:15;;;;;;;;;;;;;;;27.88;83.84;97385.81;5011532;28;19990;-82
2022/06/19 08:54:48;;;;;;;;;;;;;;;27.82;87.00;97400.31;5029571;28;20876;-83
2022/06/19 08:57:18;;;;;;;;;;;;;;;27.97;86.25;97384.66;5041419;28;20408;-82
2022/06/19 08:59:53;;;;;;;;;;;;;;;28.37;84.34;97385.13;5031886;28;19929;-82
2022/06/19 09:02:27;;;;;;;;;;;;;;;28.49;84.11;97381.19;5034972;28;19931;-82
2022/06/19 09:08:05;;;;;;;;;;;;;;;28.44;84.51;97373.38;4956749;28;19938;-81
2022/06/19 09:10:36;;;;;;;;;;;;;;;28.44;86.33;97378.84;4961962;28;19998;-83
2022/06/19 09:13:16;;;;;;;;;;;;;;;28.54;86.32;97369.81;4990253;28;19991;-81
2022/06/19 09:15:45;;;;;;;;;;;;;;;28.48;85.50;97365.09;5001212;28;20563;-82
2022/06/19 09:18:17;;;;;;;;;;;;;;;28.59;84.34;97369.44;5029889;28;20547;-82
2022/06/19 09:20:45;;;;;;;;;;;;;;;28.54;83.15;97358.81;5036823;28;20604;-81
2022/06/19 09:23:23;;;;;;;;;;;;;;;28.92;83.12;97349.78;5037213;28;19928;-81
2022/06/19 09:25:53;;;;;;;;;;;;;;;28.93;82.37;97359.59;5018585;28;20400;-81
2022/06/19 09:28:23;;;;;;;;;;;;;;;29.25;80.72;97347.72;5037641;28;19963;-82
2022/06/19 09:30:51;;;;;;;;;;;;;;;29.12;81.83;97346.59;5024094;28;20157;-81
2022/06/19 09:33:24;;;;;;;;;;;;;;;28.96;82.80;97343.47;5027239;28;19979;-82
2022/06/19 09:35:53;;;;;;;;;;;;;;;28.98;82.51;97346.59;5030140;28;19929;-81
2022/06/19 09:38:22;;;;;;;;;;;;;;;29.05;80.53;97349.34;5029880;28;20198;-81
2022/06/19 09:40:51;;;;;;;;;;;;;;;29.07;79.00;97342.25;5021459;28;19981;-82
2022/06/19 09:43:22;;;;;;;;;;;;;;;29.35;78.80;97341.41;5029938;28;19929;-80
2022/06/19 09:45:52;;;;;;;;;;;;;;;29.59;77.27;97343.25;5030372;28;20026;-81
2022/06/19 09:48:22;;;;;;;;;;;;;;;29.47;77.80;97340.94;5039303;28;19925;-81
2022/06/19 09:50:50;;;;;;;;;;;;;;;29.62;77.96;97334.19;5036977;28;19931;-81
2022/06/19 09:53:20;;;;;;;;;;;;;;;29.85;77.15;97339.19;5035007;28;20367;-81
2022/06/19 09:55:48;;;;;;;;;;;;;;;29.72;75.67;97325.09;5026162;28;19935;-82
2022/06/19 09:58:16;;;;;;;;;;;;;;;29.73;76.34;97329.41;5028269;28;19976;-81
2022/06/19 10:00:44;;;;;;;;;;;;;;;29.78;75.96;97328.97;5031284;28;20566;-81
2022/06/19 10:03:17;;;;;;;;;;;;;;;29.85;75.70;97334.47;5036385;28;19925;-81
2022/06/19 10:05:47;;;;;;;;;;;;;;;30.08;74.80;97324.88;5015249;28;19971;-82
2022/06/19 10:08:16;;;;;;;;;;;;;;;30.24;73.84;97327.88;5034074;28;20020;-81
2022/06/19 10:10:45;;;;;;;;;;;;;;;30.31;73.09;97330.59;5016466;28;20015;-81
2022/06/19 10:13:15;;;;;;;;;;;;;;;30.36;72.48;97327.41;5029277;28;20563;-82
2022/06/19 10:15:43;;;;;;;;;;;;;;;30.40;72.57;97322.66;5037453;28;19937;-82
2022/06/19 10:18:14;;;;;;;;;;;;;;;30.44;72.73;97312.41;5028157;28;19925;-82
2022/06/19 10:20:47;;;;;;;;;;;;;;;30.61;71.60;97307.94;5017386;28;19929;-82
2022/06/19 10:23:20;;;;;;;;;;;;;;;30.64;71.28;97309.88;5040867;28;20536;-81
2022/06/19 10:25:55;;;;;;;;;;;;;;;30.93;70.99;97306.38;5008228;28;19928;-83
2022/06/19 10:28:48;;;;;;;;;;;;;;;30.78;67.51;97312.47;5038890;28;20373;-82
2022/06/19 10:31:19;;;;;;;;;;;;;;;30.97;68.48;97304.41;5006373;28;19929;-81
2022/06/19 10:33:52;;;;;;;;;;;;;;;31.00;67.83;97309.09;5036527;28;20027;-83
2022/06/19 10:36:26;;;;;;;;;;;;;;;31.01;65.41;97310.66;5040704;28;19970;-83
2022/06/19 10:39:13;;;;;;;;;;;;;;;31.03;65.38;97302.75;5020988;28;19929;-83
2022/06/19 10:42:01;;;;;;;;;;;;;;;31.09;63.84;97310.56;5041779;28;19931;-83
2022/06/19 10:44:35;;;;;;;;;;;;;;;31.07;64.69;97307.44;5024699;28;20686;-83
2022/06/19 10:47:08;;;;;;;;;;;;;;;31.06;65.90;97305.88;5017468;28;20491;-81
2022/06/19 10:49:36;;;;;;;;;;;;;;;31.33;66.12;97310.25;5017390;28;20023;-81
2022/06/19 10:52:10;;;;;;;;;;;;;;;31.39;65.62;97305.84;5033444;28;20007;-84
2022/06/19 10:54:51;;;;;;;;;;;;;;;31.25;66.67;97297.75;5019773;28;20008;-83
2022/06/19 10:57:24;;;;;;;;;;;;;;;31.32;66.04;97296.91;5022881;28;20011;-82
2022/06/19 10:59:52;;;;;;;;;;;;;;;31.41;65.60;97291.66;5031329;28;19925;-82
2022/06/19 11:05:13;;;;;;;;;;;;;;;31.60;64.44;97299.28;5031001;28;20025;-83
2022/06/19 11:07:41;;;;;;;;;;;;;;;31.51;65.02;97290.72;5026784;28;19991;-82
2022/06/19 11:10:11;;;;;;;;;;;;;;;31.72;64.15;97287.69;5032110;28;19971;-83
2022/06/19 11:12:40;;;;;;;;;;;;;;;31.84;62.96;97289.09;5028766;28;19980;-81
2022/06/19 11:15:08;;;;;;;;;;;;;;;31.76;62.14;97284.84;5018876;28;19936;-82
2022/06/19 11:17:35;;;;;;;;;;;;;;;31.74;63.78;97279.75;5018226;28;19935;-83
2022/06/19 11:20:20;;;;;;;;;;;;;;;31.70;64.05;97279.03;5019367;28;20559;-82
2022/06/19 11:22:49;;;;;;;;;;;;;;;31.80;62.72;97264.28;5037075;28;20403;-84
2022/06/19 11:25:25;;;;;;;;;;;;;;;31.94;62.20;97264.06;5024957;28;19933;-82
2022/06/19 11:27:53;;;;;;;;;;;;;;;32.00;63.10;97265.13;5040104;28;20020;-82
2022/06/19 11:30:26;;;;;;;;;;;;;;;32.02;63.92;97256.44;5008058;28;20585;-83
2022/06/19 11:32:52;;;;;;;;;;;;;;;32.02;64.94;97256.44;5029152;28;19933;-83
2022/06/19 11:35:19;;;;;;;;;;;;;;;31.94;63.46;97243.94;5030539;28;20582;-82
2022/06/19 11:37:49;;;;;;;;;;;;;;;32.02;63.62;97246.19;5016626;28;20025;-84
2022/06/19 11:40:19;;;;;;;;;;;;;;;32.00;64.42;97256.84;5003549;28;19983;-81
2022/06/19 11:42:47;;;;;;;;;;;;;;;31.83;66.05;97252.41;5026440;28;19931;-81
2022/06/19 11:45:21;;;;;;;;;;;;;;;32.10;64.44;97241.31;5013232;28;20047;-84
2022/06/19 11:47:52;;;;;;;;;;;;;;;32.17;62.43;97243.19;5008606;28;20027;-83
2022/06/19 11:50:21;;;;;;;;;;;;;;;32.26;62.34;97243.44;5035503;28;20085;-83
2022/06/19 11:52:49;;;;;;;;;;;;;;;32.00;65.63;97240.28;5033733;28;19928;-82
2022/06/19 11:55:22;;;;;;;;;;;;;;;32.34;64.25;97245.63;5034206;28;19935;-82
2022/06/19 11:57:50;;;;;;;;;;;;;;;32.55;62.64;97244.47;5018012;28;19935;-82
2022/06/19 12:00:23;;;;;;;;;;;;;;;32.64;62.01;97235.66;5037998;28;20019;-83
2022/06/19 12:02:53;;;;;;;;;;;;;;;32.81;63.20;97228.97;5030036;28;20008;-84
2022/06/19 12:05:22;;;;;;;;;;;;;;;32.88;63.09;97218.56;5026691;28;20012;-82
2022/06/19 12:07:48;;;;;;;;;;;;;;;33.03;62.88;97238.41;5036928;28;20059;-84
2022/06/19 12:10:21;;;;;;;;;;;;;;;33.13;61.43;97229.91;5032307;28;20027;-83
2022/06/19 12:12:53;;;;;;;;;;;;;;;33.24;62.85;97223.38;5005945;28;20377;-83
2022/06/19 12:15:23;;;;;;;;;;;;;;;33.34;61.34;97214.03;5035277;28;19993;-85
2022/06/19 12:17:56;;;;;;;;;;;;;;;33.20;60.96;97225.44;5034719;28;20019;-83
2022/06/19 12:20:25;;;;;;;;;;;;;;;33.21;60.92;97216.69;5018843;28;19930;-84
2022/06/19 12:22:53;;;;;;;;;;;;;;;33.17;59.99;97218.00;5013907;28;20499;-83
2022/06/19 12:25:27;;;;;;;;;;;;;;;33.26;61.33;97213.44;5035188;28;19991;-83
2022/06/19 12:27:58;;;;;;;;;;;;;;;33.22;60.24;97209.97;5029431;28;20385;-83
2022/06/19 12:30:28;;;;;;;;;;;;;;;33.42;60.33;97207.94;5032643;28;20011;-83
2022/06/19 12:32:56;;;;;;;;;;;;;;;33.45;59.78;97198.00;5014460;28;20043;-82
2022/06/19 12:35:28;;;;;;;;;;;;;;;33.42;59.97;97202.41;5033326;28;20007;-83
2022/06/19 12:37:54;;;;;;;;;;;;;;;33.48;59.14;97197.13;5034144;28;20003;-83
2022/06/19 12:40:24;;;;;;;;;;;;;;;33.53;59.30;97196.59;5031773;28;19933;-85
2022/06/19 12:42:55;;;;;;;;;;;;;;;33.33;57.73;97195.91;5015837;28;20028;-82
2022/06/19 12:45:32;;;;;;;;;;;;;;;33.21;57.47;97194.56;5031597;28;20016;-84
2022/06/19 12:48:03;;;;;;;;;;;;;;;33.51;60.40;97185.19;5035048;28;19968;-82
2022/06/19 12:50:45;;;;;;;;;;;;;;;33.73;59.32;97183.50;5035131;28;19935;-83
2022/06/19 12:53:29;;;;;;;;;;;;;;;33.82;58.67;97183.66;5027625;28;20039;-85
2022/06/19 12:55:58;;;;;;;;;;;;;;;33.96;60.10;97191.63;5035038;28;20570;-83
2022/06/19 12:58:45;;;;;;;;;;;;;;;34.15;60.15;97193.53;5017506;28;20060;-82
2022/06/19 13:01:16;;;;;;;;;;;;;;;34.13;60.52;97190.41;5030240;28;19977;-83